createdAt,value
2017-11-07T00:00:00.185Z,94.71
2017-11-07T00:02:28.472Z,93.64
2017-11-07T00:04:56.740Z,92.97
2017-11-07T00:07:25.025Z,92.92
2017-11-07T00:09:53.549Z,93.55
2017-11-07T00:12:21.837Z,93.81
2017-11-07T00:14:50.121Z,94.15
2017-11-07T00:17:18.405Z,93.81
2017-11-07T00:19:46.694Z,94.15
2017-11-07T00:22:14.978Z,93.47
2017-11-07T00:24:43.637Z,93.43
2017-11-07T00:27:11.919Z,93.40
2017-11-07T00:29:40.197Z,95.06
2017-11-07T00:32:08.468Z,94.56
2017-11-07T00:34:36.752Z,94.17
2017-11-07T00:37:05.049Z,93.23
2017-11-07T00:39:33.336Z,92.97
2017-11-07T00:42:03.621Z,92.96
2017-11-07T00:44:31.901Z,93.10
2017-11-07T00:47:00.183Z,93.08
2017-11-07T00:49:28.459Z,93.35
2017-11-07T00:51:58.338Z,93.41
2017-11-07T00:54:26.637Z,92.93
2017-11-07T00:56:54.917Z,92.23
2017-11-07T00:59:23.193Z,92.38
2017-11-07T01:01:52.984Z,92.19
2017-11-07T01:04:21.287Z,92.41
2017-11-07T01:06:49.576Z,92.38
2017-11-07T01:09:17.848Z,92.07
2017-11-07T01:11:46.136Z,91.91
2017-11-07T01:14:14.412Z,92.28
2017-11-07T01:16:43.739Z,93.81
2017-11-07T01:19:12.017Z,96.47
2017-11-07T01:21:40.933Z,96.45
2017-11-07T01:24:09.976Z,96.54
2017-11-07T01:26:38.257Z,95.75
2017-11-07T01:29:06.580Z,95.85
2017-11-07T01:31:34.921Z,96.09
2017-11-07T01:34:03.195Z,95.99
2017-11-07T01:36:31.477Z,95.61
2017-11-07T01:39:00.522Z,94.83
2017-11-07T01:41:28.937Z,94.51
2017-11-07T01:43:57.219Z,94.16
2017-11-07T01:46:26.277Z,93.98
2017-11-07T01:48:54.580Z,94.00
2017-11-07T01:51:22.864Z,93.86
2017-11-07T01:53:51.161Z,93.73
2017-11-07T01:56:20.213Z,93.55
2017-11-07T01:58:48.532Z,93.98
2017-11-07T02:01:16.813Z,94.12
2017-11-07T02:03:45.092Z,94.20
2017-11-07T02:06:13.367Z,95.19
2017-11-07T02:08:41.641Z,95.09
2017-11-07T02:11:09.916Z,94.36
2017-11-07T02:13:38.192Z,94.61
2017-11-07T02:16:06.473Z,95.55
2017-11-07T02:18:35.532Z,97.59
2017-11-07T02:21:06.146Z,100.00
2017-11-07T02:23:34.429Z,100.00
2017-11-07T02:26:02.726Z,100.00
2017-11-07T02:28:31.787Z,100.00
2017-11-07T02:31:00.831Z,100.00
2017-11-07T02:33:29.932Z,98.75
2017-11-07T02:35:58.228Z,97.33
2017-11-07T02:38:26.509Z,96.31
2017-11-07T02:40:54.778Z,95.39
2017-11-07T02:43:23.058Z,95.50
2017-11-07T02:45:51.344Z,94.45
2017-11-07T02:48:19.613Z,94.46
2017-11-07T02:50:47.892Z,95.05
2017-11-07T02:53:16.170Z,94.66
2017-11-07T02:55:45.320Z,93.95
2017-11-07T02:58:13.613Z,94.39
2017-11-07T03:00:41.893Z,94.57
2017-11-07T03:03:10.185Z,94.11
2017-11-07T03:05:38.481Z,97.48
2017-11-07T03:08:06.765Z,99.28
2017-11-07T03:10:35.041Z,99.68
2017-11-07T03:13:03.329Z,98.66
2017-11-07T03:15:31.624Z,97.89
2017-11-07T03:17:59.911Z,97.32
2017-11-07T03:20:28.952Z,97.12
2017-11-07T03:22:57.236Z,96.98
2017-11-07T03:25:25.526Z,97.45
2017-11-07T03:27:53.805Z,97.66
2017-11-07T03:30:22.098Z,97.10
2017-11-07T03:32:51.332Z,97.18
2017-11-07T03:35:19.604Z,96.29
2017-11-07T03:37:48.256Z,94.72
2017-11-07T03:40:16.540Z,94.81
2017-11-07T03:42:45.661Z,94.40
2017-11-07T03:45:13.944Z,93.58
2017-11-07T03:47:42.225Z,93.24
2017-11-07T03:50:10.509Z,93.70
2017-11-07T03:52:39.251Z,93.36
2017-11-07T03:55:07.540Z,93.60
2017-11-07T03:57:35.817Z,95.20
2017-11-07T04:00:04.865Z,94.55
2017-11-07T04:02:33.168Z,95.52
2017-11-07T04:05:01.473Z,96.14
2017-11-07T04:07:29.758Z,94.46
2017-11-07T04:09:58.041Z,93.63
2017-11-07T04:12:26.320Z,94.22
2017-11-07T04:14:54.602Z,96.51
2017-11-07T04:17:22.870Z,97.97
2017-11-07T04:19:51.153Z,98.31
2017-11-07T04:22:19.461Z,97.82
2017-11-07T04:24:47.740Z,97.18
2017-11-07T04:27:16.033Z,97.52
2017-11-07T04:29:44.318Z,96.68
2017-11-07T04:32:12.610Z,96.52
2017-11-07T04:34:40.885Z,96.06
2017-11-07T04:37:09.161Z,94.82
2017-11-07T04:39:37.440Z,93.91
2017-11-07T04:42:05.718Z,92.86
2017-11-07T04:44:34.009Z,93.59
2017-11-07T04:47:05.232Z,93.64
2017-11-07T04:49:34.273Z,93.64
2017-11-07T04:52:02.570Z,93.78
2017-11-07T04:54:30.837Z,93.48
2017-11-07T04:56:59.121Z,93.19
2017-11-07T04:59:27.401Z,92.85
2017-11-07T05:01:55.688Z,93.77
2017-11-07T05:04:23.953Z,93.40
2017-11-07T05:06:52.219Z,92.77
2017-11-07T05:09:20.519Z,93.62
2017-11-07T05:11:48.787Z,92.79
2017-11-07T05:14:17.069Z,92.00
2017-11-07T05:16:46.796Z,91.56
2017-11-07T05:19:15.841Z,90.94
2017-11-07T05:21:44.126Z,91.49
2017-11-07T05:24:12.429Z,92.89
2017-11-07T05:26:42.049Z,93.67
2017-11-07T05:29:11.099Z,93.61
2017-11-07T05:31:39.382Z,94.01
2017-11-07T05:34:07.659Z,93.79
2017-11-07T05:36:35.927Z,94.33
2017-11-07T05:39:04.210Z,95.11
2017-11-07T05:41:32.489Z,95.74
2017-11-07T05:44:00.787Z,96.98
2017-11-07T05:46:29.064Z,99.03
2017-11-07T05:48:58.125Z,98.71
2017-11-07T05:51:26.413Z,97.85
2017-11-07T05:53:54.709Z,96.59
2017-11-07T05:56:23.008Z,95.55
2017-11-07T05:58:51.828Z,94.87
2017-11-07T06:01:20.111Z,95.66
2017-11-07T06:03:48.426Z,98.29
2017-11-07T06:06:17.049Z,98.43
2017-11-07T06:08:45.324Z,97.37
2017-11-07T06:11:13.609Z,96.51
2017-11-07T06:13:41.917Z,99.65
2017-11-07T06:16:10.220Z,100.00
2017-11-07T06:18:39.269Z,100.00
2017-11-07T06:21:07.571Z,100.00
2017-11-07T06:23:35.856Z,99.94
2017-11-07T06:26:04.144Z,99.12
2017-11-07T06:28:32.441Z,99.40
2017-11-07T06:31:00.732Z,99.20
2017-11-07T06:33:29.012Z,99.41
2017-11-07T06:35:57.288Z,98.56
2017-11-07T06:38:25.566Z,98.56
2017-11-07T06:40:53.860Z,98.33
2017-11-07T06:43:22.152Z,97.99
2017-11-07T06:45:50.411Z,97.53
2017-11-07T06:48:18.947Z,97.11
2017-11-07T06:50:47.229Z,96.83
2017-11-07T06:53:16.275Z,96.95
2017-11-07T06:55:44.568Z,97.33
2017-11-07T06:58:12.880Z,96.78
2017-11-07T07:00:41.163Z,96.59
2017-11-07T07:03:09.448Z,96.92
2017-11-07T07:05:37.737Z,96.77
2017-11-07T07:08:06.009Z,97.46
2017-11-07T07:10:34.286Z,97.12
2017-11-07T07:13:02.968Z,96.19
2017-11-07T07:15:31.261Z,95.71
2017-11-07T07:18:00.230Z,95.32
2017-11-07T07:20:31.438Z,96.58
2017-11-07T07:22:59.712Z,97.36
2017-11-07T07:25:27.996Z,96.83
2017-11-07T07:27:56.271Z,97.05
2017-11-07T07:30:24.888Z,97.66
2017-11-07T07:32:53.180Z,97.50
2017-11-07T07:35:21.465Z,96.33
2017-11-07T07:37:49.744Z,96.12
2017-11-07T07:40:18.017Z,95.47
2017-11-07T07:42:46.299Z,95.21
2017-11-07T07:45:14.600Z,95.73
2017-11-07T07:47:43.651Z,95.50
2017-11-07T07:50:11.924Z,95.19
2017-11-07T07:52:40.191Z,94.18
2017-11-07T07:55:11.292Z,93.71
2017-11-07T07:57:39.569Z,94.47
2017-11-07T08:00:08.622Z,94.02
2017-11-07T08:02:36.889Z,93.60
2017-11-07T08:05:05.171Z,92.98
2017-11-07T08:07:33.448Z,93.05
2017-11-07T08:10:01.728Z,93.40
2017-11-07T08:12:30.688Z,92.22
2017-11-07T08:14:58.973Z,91.72
2017-11-07T08:17:27.253Z,91.98
2017-11-07T08:19:55.533Z,92.04
2017-11-07T08:22:24.205Z,92.15
2017-11-07T08:24:53.454Z,91.91
2017-11-07T08:27:21.985Z,92.52
2017-11-07T08:29:50.256Z,93.55
2017-11-07T08:32:18.544Z,93.29
2017-11-07T08:34:46.833Z,93.11
2017-11-07T08:37:15.117Z,93.85
2017-11-07T08:39:43.397Z,94.01
2017-11-07T08:42:11.676Z,94.71
2017-11-07T08:44:40.236Z,94.51
2017-11-07T08:47:08.509Z,94.55
2017-11-07T08:49:36.788Z,93.63
2017-11-07T08:52:05.068Z,93.33
2017-11-07T08:54:33.349Z,94.07
2017-11-07T08:57:01.625Z,93.70
2017-11-07T08:59:29.907Z,93.56
2017-11-07T09:01:58.193Z,93.98
2017-11-07T09:04:26.472Z,93.89
2017-11-07T09:06:54.756Z,93.90
2017-11-07T09:09:23.053Z,94.73
2017-11-07T09:11:51.333Z,95.55
2017-11-07T09:14:20.393Z,95.65
2017-11-07T09:16:48.673Z,94.63
2017-11-07T09:19:16.960Z,95.01
2017-11-07T09:21:45.247Z,94.43
2017-11-07T09:24:13.531Z,94.48
2017-11-07T09:26:42.581Z,94.17
2017-11-07T09:29:10.865Z,93.02
2017-11-07T09:31:39.161Z,93.92
2017-11-07T09:34:07.445Z,93.42
2017-11-07T09:36:35.942Z,92.90
2017-11-07T09:39:04.985Z,93.35
2017-11-07T09:41:33.257Z,92.38
2017-11-07T09:44:01.545Z,92.62
2017-11-07T09:46:29.832Z,93.20
2017-11-07T09:48:58.113Z,93.00
2017-11-07T09:51:26.394Z,93.00
2017-11-07T09:53:54.669Z,92.11
2017-11-07T09:56:22.944Z,92.52
2017-11-07T09:58:51.238Z,91.65
2017-11-07T10:01:19.520Z,91.06
2017-11-07T10:03:47.832Z,91.18
2017-11-07T10:06:16.112Z,90.39
2017-11-07T10:08:44.425Z,91.20
2017-11-07T10:11:12.753Z,92.13
2017-11-07T10:13:41.041Z,92.29
2017-11-07T10:16:09.330Z,92.76
2017-11-07T10:18:38.385Z,93.16
2017-11-07T10:21:07.447Z,93.32
2017-11-07T10:23:35.759Z,92.35
2017-11-07T10:26:04.092Z,92.13
2017-11-07T10:28:32.379Z,94.03
2017-11-07T10:31:00.660Z,93.53
2017-11-07T10:33:28.941Z,93.76
2017-11-07T10:35:57.261Z,92.99
2017-11-07T10:38:25.662Z,93.43
2017-11-07T10:40:53.945Z,93.27
2017-11-07T10:43:22.236Z,92.80
2017-11-07T10:45:50.540Z,93.61
2017-11-07T10:48:20.485Z,92.46
2017-11-07T10:50:50.701Z,93.16
2017-11-07T10:53:18.981Z,93.12
2017-11-07T10:55:47.257Z,92.93
2017-11-07T10:58:20.022Z,92.27
2017-11-07T11:00:48.300Z,91.27
2017-11-07T11:03:16.580Z,91.50
2017-11-07T11:05:44.862Z,91.11
2017-11-07T11:08:13.188Z,90.86
2017-11-07T11:10:41.472Z,91.88
2017-11-07T11:13:09.738Z,92.20
2017-11-07T11:15:38.020Z,92.09
2017-11-07T11:18:06.301Z,91.53
2017-11-07T11:20:34.588Z,91.58
2017-11-07T11:23:03.636Z,90.75
2017-11-07T11:25:32.756Z,91.53
2017-11-07T11:28:01.060Z,90.12
2017-11-07T11:30:29.342Z,89.98
2017-11-07T11:32:58.409Z,88.89
2017-11-07T11:35:26.689Z,89.06
2017-11-07T11:37:54.976Z,88.05
2017-11-07T11:40:23.263Z,87.04
2017-11-07T11:42:51.534Z,87.73
2017-11-07T11:45:21.208Z,87.24
2017-11-07T11:47:49.537Z,86.08
2017-11-07T11:50:17.813Z,88.79
2017-11-07T11:52:46.092Z,89.13
2017-11-07T11:55:14.382Z,89.91
2017-11-07T11:57:42.660Z,90.53
2017-11-07T12:00:10.949Z,90.14
2017-11-07T12:02:39.220Z,90.57
2017-11-07T12:05:08.349Z,89.67
2017-11-07T12:07:36.640Z,89.14
2017-11-07T12:10:05.705Z,88.17
2017-11-07T12:12:33.989Z,88.34
2017-11-07T12:15:02.295Z,87.52
2017-11-07T12:17:31.336Z,86.56
2017-11-07T12:19:59.620Z,87.09
2017-11-07T12:22:27.904Z,86.15
2017-11-07T12:24:56.766Z,85.59
2017-11-07T12:27:25.047Z,85.52
2017-11-07T12:29:53.324Z,84.73
2017-11-07T12:32:21.823Z,84.89
2017-11-07T12:34:50.876Z,84.67
2017-11-07T12:37:19.160Z,85.58
2017-11-07T12:39:47.428Z,86.31
2017-11-07T12:42:15.717Z,85.86
2017-11-07T12:44:44.000Z,86.57
2017-11-07T12:47:12.275Z,86.87
2017-11-07T12:49:40.552Z,86.75
2017-11-07T12:52:09.767Z,87.10
2017-11-07T12:54:38.036Z,86.92
2017-11-07T12:57:06.333Z,86.83
2017-11-07T12:59:34.614Z,87.13
2017-11-07T13:02:02.905Z,87.22
2017-11-07T13:04:31.192Z,87.25
2017-11-07T13:06:59.472Z,88.25
2017-11-07T13:09:28.535Z,88.55
2017-11-07T13:11:57.408Z,88.45
2017-11-07T13:14:25.681Z,88.03
2017-11-07T13:16:53.969Z,89.36
2017-11-07T13:19:22.261Z,88.30
2017-11-07T13:21:50.541Z,89.35
2017-11-07T13:24:18.832Z,89.76
2017-11-07T13:26:47.134Z,89.18
2017-11-07T13:29:15.419Z,88.80
2017-11-07T13:31:43.725Z,88.53
2017-11-07T13:34:12.016Z,87.86
2017-11-07T13:36:40.290Z,88.24
2017-11-07T13:39:08.584Z,88.15
2017-11-07T13:41:36.862Z,88.34
2017-11-07T13:44:05.147Z,89.20
2017-11-07T13:46:34.188Z,90.05
2017-11-07T13:49:02.451Z,89.69
2017-11-07T13:51:30.728Z,89.62
2017-11-07T13:53:59.012Z,88.91
2017-11-07T13:56:27.281Z,90.05
2017-11-07T13:58:55.561Z,89.94
2017-11-07T14:01:23.846Z,89.41
2017-11-07T14:03:52.138Z,89.18
2017-11-07T14:06:20.415Z,89.66
2017-11-07T14:08:48.709Z,89.13
2017-11-07T14:11:17.001Z,89.36
2017-11-07T14:13:46.044Z,89.37
2017-11-07T14:16:14.336Z,89.72
2017-11-07T14:18:42.610Z,88.91
2017-11-07T14:21:10.936Z,87.98
2017-11-07T14:23:39.292Z,88.15
2017-11-07T14:26:07.568Z,87.70
2017-11-07T14:28:35.852Z,88.30
2017-11-07T14:31:04.148Z,87.87
2017-11-07T14:33:32.429Z,87.79
2017-11-07T14:36:00.709Z,89.29
2017-11-07T14:38:29.005Z,88.88
2017-11-07T14:40:57.290Z,89.31
2017-11-07T14:43:25.661Z,89.14
2017-11-07T14:45:53.947Z,89.03
2017-11-07T14:48:25.653Z,89.47
2017-11-07T14:50:54.564Z,89.64
2017-11-07T14:53:23.171Z,90.98
2017-11-07T14:55:51.628Z,90.61
2017-11-07T14:58:19.933Z,89.81
2017-11-07T15:00:48.221Z,90.74
2017-11-07T15:03:16.500Z,91.95
2017-11-07T15:05:44.776Z,92.39
2017-11-07T15:08:13.077Z,91.93
2017-11-07T15:10:41.501Z,92.20
2017-11-07T15:13:09.863Z,91.58
2017-11-07T15:15:38.144Z,91.20
2017-11-07T15:18:06.436Z,90.85
2017-11-07T15:20:34.728Z,90.76
2017-11-07T15:23:03.008Z,90.42
2017-11-07T15:25:31.749Z,90.13
2017-11-07T15:28:00.830Z,90.47
2017-11-07T15:30:29.212Z,90.91
2017-11-07T15:32:57.504Z,90.82
2017-11-07T15:35:25.779Z,90.79
2017-11-07T15:37:54.075Z,90.98
2017-11-07T15:40:22.356Z,90.38
2017-11-07T15:42:50.640Z,90.33
2017-11-07T15:45:18.929Z,90.72
2017-11-07T15:47:47.203Z,90.25
2017-11-07T15:50:17.016Z,90.44
2017-11-07T15:52:46.129Z,91.89
2017-11-07T15:55:14.652Z,92.89
2017-11-07T15:57:43.432Z,92.06
2017-11-07T16:00:11.803Z,91.71
2017-11-07T16:02:40.141Z,91.05
2017-11-07T16:05:08.440Z,91.66
2017-11-07T16:07:36.974Z,91.35
2017-11-07T16:10:05.265Z,91.71
2017-11-07T16:12:33.789Z,92.63
2017-11-07T16:15:02.240Z,93.66
2017-11-07T16:17:30.539Z,93.69
2017-11-07T16:19:58.849Z,93.11
2017-11-07T16:22:27.244Z,92.84
2017-11-07T16:24:55.564Z,92.55
2017-11-07T16:27:23.899Z,92.00
2017-11-07T16:29:52.361Z,92.40
2017-11-07T16:32:20.630Z,91.29
2017-11-07T16:34:49.117Z,91.67
2017-11-07T16:37:17.470Z,91.29
2017-11-07T16:39:47.372Z,91.06
2017-11-07T16:42:15.638Z,91.97
2017-11-07T16:44:43.911Z,93.25
2017-11-07T16:47:12.265Z,92.75
2017-11-07T16:49:40.610Z,92.24
2017-11-07T16:52:08.916Z,91.96
2017-11-07T16:54:37.274Z,93.44
2017-11-07T16:57:05.756Z,93.67
2017-11-07T16:59:34.070Z,93.56
2017-11-07T17:02:02.424Z,92.96
2017-11-07T17:04:31.505Z,91.75
2017-11-07T17:06:59.787Z,91.26
2017-11-07T17:09:28.155Z,90.15
2017-11-07T17:11:57.448Z,90.49
2017-11-07T17:14:25.738Z,89.58
2017-11-07T17:16:54.036Z,89.39
2017-11-07T17:19:22.318Z,88.99
2017-11-07T17:21:51.384Z,88.96
2017-11-07T17:24:19.666Z,88.58
2017-11-07T17:26:50.161Z,88.08
2017-11-07T17:29:18.539Z,87.61
2017-11-07T17:31:47.588Z,87.16
2017-11-07T17:34:15.876Z,87.21
2017-11-07T17:36:44.162Z,87.31
2017-11-07T17:39:12.521Z,87.60
2017-11-07T17:41:42.529Z,86.98
2017-11-07T17:44:11.005Z,88.09
2017-11-07T17:46:39.494Z,88.19
2017-11-07T17:49:07.794Z,87.49
2017-11-07T17:51:36.072Z,87.40
2017-11-07T17:54:04.493Z,87.16
2017-11-07T17:56:33.052Z,86.97
2017-11-07T17:59:01.389Z,87.38
2017-11-07T18:01:29.729Z,88.10
2017-11-07T18:03:59.001Z,88.02
2017-11-07T18:06:27.337Z,88.19
2017-11-07T18:08:55.840Z,88.22
2017-11-07T18:11:24.290Z,87.77
2017-11-07T18:13:53.722Z,88.54
2017-11-07T18:16:23.307Z,87.79
2017-11-07T18:18:54.847Z,87.75
2017-11-07T18:21:23.458Z,88.15
2017-11-07T18:23:56.201Z,88.58
2017-11-07T18:26:24.947Z,88.50
2017-11-07T18:28:54.488Z,88.59
2017-11-07T18:31:24.118Z,88.71
2017-11-07T18:33:54.083Z,88.64
2017-11-07T18:36:23.642Z,88.34
2017-11-07T18:38:53.326Z,88.37
2017-11-07T18:41:23.155Z,88.28
2017-11-07T18:43:54.689Z,88.22
2017-11-07T18:46:24.448Z,87.97
2017-11-07T18:48:55.259Z,88.55
2017-11-07T18:51:25.858Z,88.14
2017-11-07T18:53:55.613Z,89.21
2017-11-07T18:56:25.458Z,88.69
2017-11-07T18:58:55.344Z,88.76
2017-11-07T19:01:25.329Z,88.94
2017-11-07T19:20:00.188Z,89.88
2017-11-07T19:22:30.054Z,90.66
2017-11-07T19:24:59.978Z,90.04
2017-11-07T19:27:29.823Z,89.85
2017-11-07T19:30:00.189Z,89.65
2017-11-07T19:32:30.043Z,89.21
2017-11-07T19:35:00.084Z,88.75
2017-11-07T19:37:29.990Z,88.59
2017-11-07T19:40:00.779Z,88.36
2017-11-07T19:42:30.735Z,87.81
2017-11-07T19:45:01.456Z,88.00
2017-11-07T19:47:31.421Z,88.72
2017-11-07T19:50:01.249Z,88.81
2017-11-07T19:52:31.061Z,88.63
2017-11-07T19:55:00.993Z,87.84
2017-11-07T19:57:30.940Z,88.32
2017-11-07T20:00:00.902Z,88.73
2017-11-07T20:02:32.235Z,88.14
2017-11-07T20:05:02.236Z,87.83
2017-11-07T20:07:32.125Z,87.39
2017-11-07T20:10:02.791Z,86.97
2017-11-07T20:12:32.765Z,86.78
2017-11-07T20:15:02.602Z,87.00
2017-11-07T20:17:32.823Z,87.73
2017-11-07T20:20:02.838Z,87.57
2017-11-07T20:22:32.761Z,87.62
2017-11-07T20:25:02.645Z,87.88
2017-11-07T20:27:33.300Z,87.86
2017-11-07T20:30:04.148Z,87.54
2017-11-07T20:32:34.065Z,87.64
2017-11-07T20:35:03.923Z,88.00
2017-11-07T20:37:33.828Z,87.78
2017-11-07T20:40:03.741Z,87.86
2017-11-07T20:42:33.772Z,88.38
2017-11-07T20:45:03.681Z,88.11
2017-11-07T20:47:34.341Z,88.09
2017-11-07T20:50:05.118Z,87.87
2017-11-07T20:52:35.018Z,87.75
2017-11-07T20:55:05.025Z,87.64
2017-11-07T20:57:34.932Z,87.40
2017-11-07T21:00:05.051Z,87.56
2017-11-07T21:02:34.823Z,87.49
2017-11-07T21:05:04.644Z,87.58
2017-11-07T21:07:34.660Z,87.34
2017-11-07T21:10:04.619Z,87.49
2017-11-07T21:12:34.452Z,88.32
2017-11-07T21:15:04.304Z,88.39
2017-11-07T21:17:34.089Z,89.75
2017-11-07T21:20:09.259Z,89.31
2017-11-07T21:22:39.027Z,91.54
2017-11-07T21:25:08.835Z,92.06
2017-11-07T21:27:38.588Z,92.19
2017-11-07T21:30:08.344Z,91.92
2017-11-07T21:32:38.182Z,92.01
2017-11-07T21:35:08.082Z,92.76
2017-11-07T21:37:37.168Z,93.22
2017-11-07T21:40:06.411Z,93.82
2017-11-07T21:42:35.104Z,93.76
2017-11-07T21:45:05.011Z,94.50
2017-11-07T21:47:33.372Z,93.54
2017-11-07T21:50:01.746Z,94.48
2017-11-07T21:52:31.164Z,94.25
2017-11-07T21:54:59.544Z,94.10
2017-11-07T21:57:27.903Z,94.65
2017-11-07T21:59:56.293Z,94.71
2017-11-07T22:02:26.549Z,93.85
2017-11-07T22:04:54.850Z,92.76
2017-11-07T22:07:23.133Z,92.19
2017-11-07T22:09:53.338Z,92.60
2017-11-07T22:12:21.637Z,92.45
2017-11-07T22:14:49.921Z,92.91
2017-11-07T22:17:19.738Z,93.42
2017-11-07T22:19:48.065Z,93.50
2017-11-07T22:22:16.357Z,93.17
2017-11-07T22:24:44.747Z,92.42
2017-11-07T22:27:13.968Z,91.49
2017-11-07T22:29:42.250Z,91.30
2017-11-07T22:32:10.564Z,92.20
2017-11-07T22:34:40.351Z,91.80
2017-11-07T22:37:15.581Z,92.90
2017-11-07T22:39:43.871Z,91.85
2017-11-07T22:42:12.164Z,91.21
2017-11-07T22:44:40.445Z,90.67
2017-11-07T22:47:09.494Z,90.09
2017-11-07T22:49:37.777Z,89.73
2017-11-07T22:52:06.094Z,89.62
2017-11-07T22:54:35.140Z,89.36
2017-11-07T22:57:03.409Z,89.37
2017-11-07T22:59:31.722Z,91.89
2017-11-07T23:02:00.742Z,92.20
2017-11-07T23:04:31.334Z,92.25
2017-11-07T23:06:59.618Z,92.41
2017-11-07T23:09:28.735Z,92.51
2017-11-07T23:11:57.015Z,92.00
2017-11-07T23:14:25.292Z,92.04
2017-11-07T23:16:53.582Z,92.92
2017-11-07T23:19:21.872Z,92.82
2017-11-07T23:21:50.157Z,93.64
2017-11-07T23:24:18.433Z,93.51
2017-11-07T23:26:47.654Z,92.47
2017-11-07T23:29:15.949Z,92.25
2017-11-07T23:31:44.233Z,92.26
2017-11-07T23:34:13.281Z,92.41
2017-11-07T23:36:42.765Z,92.07
2017-11-07T23:39:11.049Z,91.70
2017-11-07T23:41:39.340Z,90.76
2017-11-07T23:44:07.628Z,90.53
2017-11-07T23:46:35.921Z,91.41
2017-11-07T23:49:04.212Z,91.42
2017-11-07T23:51:34.177Z,93.70
2017-11-07T23:54:02.459Z,93.68
2017-11-07T23:56:30.721Z,94.23
2017-11-07T23:58:59.009Z,95.63
